Lewistown, MT

1:29 PM MDT on September 04, 2015 (GMT -0600)
3/4 mile S of Lewistown | | Change Station
CLOSE
Current Station
Personal Weather Station
Location: Lewistown, Mt
Elevation: 4189 ft
Nearby Weather Stations

Elev 4189 ft 47.04 °N, 109.42 °W | Updated 10 seconds ago

Overcast
Overcast
54.7 °F
Feels Like 54.7 °F
N
3.0
Wind Variable Wind from West
Gusts 10.0 mph

Today
High -- | Low -- °F
--% Chance of Precip.
Yesterday
High -- | Low -- °F
Precip. -- in
6:40 AM 7:51 PM
Waning Gibbous, 57% visible
Pressure 29.96 in
Visibility 10.0 miles
Clouds Overcast 2800 ft
Dew Point 42 °F
Humidity 63%
Rainfall 0.04 in
Snow Depth Not available.
UV 2 out of 12
Pollen 5.40 out of 12
Air Quality Not available.
Flu Activity Not available.
METAR KLWT 041854Z AUTO 28003KT 10SM OVC028 13/04 A2999 RMK AO2 SLP144 T01330039
Pressure 29.96 in
Visibility 10.0 miles
Clouds Overcast 2800 ft
Dew Point 42 °F
Humidity 63%
Rainfall 0.04 in
Snow Depth Not available.
UV 2 out of 12
Pollen 5.40 out of 12
Air Quality Not available.
Flu Activity Not available.
METAR KLWT 041854Z AUTO 28003KT 10SM OVC028 13/04 A2999 RMK AO2 SLP144 T01330039

10-Day Weather Forecast

×

Almanac

Astronomy

Sep. 04, 2015 Rise Set
Actual Time
Civil Twilight
Nautical Twilight
Astronomical Twilight
Moon
Length of Visible Light
Length of Day
Tomorrow will be .
, % of the Moon is Illuminated

Today's Extremes

State Highs State Lows

Community

WunderPhotos

Upload Photos

1,852,271 photos uploaded!

WunderBlogs® & News

Nearby

Air Quality

  Air Quality AQ Index Pollutant
Not available.

Snow Depth

Station Depth Elevation

Earthquake Activity

City Distance Mag. Time & Date
Minimum magnitude displayed is 2.5.

Coastal Water Temperatures

Place Temperature

Stations

Nearby Weather Stations

Station Location Temp. Windchill Dew Point Humidity Wind Precip. Elev Updated Type